Time;durP1;ratioP1;P1;durP2;ratioP2;P2;SDS_P1;SDS_P2;PMS_P1;PMS_P2;Temp;Humidity;BMP_temperature;BMP_pressure;BME280_temperature;BME280_humidity;BME280_pressure;Samples;Min_cycle;Max_cycle;Signal;HPM_P1;HPM_P2
2022/01/20 00:04:14;;;;;;;;;8.25;7.50;;;;;20.22;34.73;102322.78;4974935;28;45404;-55
2022/01/20 00:26:04;;;;;;;;;6.25;6.25;;;;;20.15;34.95;102352.84;4974793;28;45822;-49
2022/01/20 00:28:42;;;;;;;;;10.00;8.75;;;;;20.14;35.36;102337.09;4973499;28;45430;-51
2022/01/20 00:33:43;;;;;;;;;8.25;8.00;;;;;20.15;35.05;102321.28;4974555;28;45442;-54
2022/01/20 00:38:39;;;;;;;;;10.00;9.00;;;;;20.21;35.29;102318.44;4974711;28;45373;-58
2022/01/20 00:41:07;;;;;;;;;9.25;9.25;;;;;20.24;34.79;102320.09;4974962;28;45409;-57
2022/01/20 00:43:32;;;;;;;;;7.50;7.50;;;;;20.29;34.95;102307.69;4974416;28;46641;-55
2022/01/20 00:45:58;;;;;;;;;9.25;8.25;;;;;20.34;35.38;102308.38;4957277;28;45261;-49
2022/01/20 00:48:23;;;;;;;;;8.75;7.25;;;;;20.39;35.26;102314.38;4973554;28;45347;-57
2022/01/20 00:50:49;;;;;;;;;8.00;8.00;;;;;20.43;34.78;102319.56;4974889;28;45379;-58
2022/01/20 00:53:14;;;;;;;;;8.00;8.00;;;;;20.47;34.85;102329.06;4974359;28;45840;-51
2022/01/20 00:55:40;;;;;;;;;6.75;6.75;;;;;20.51;34.63;102328.06;4974679;28;45291;-57
2022/01/20 00:58:06;;;;;;;;;8.00;7.25;;;;;20.55;34.49;102325.28;4974559;28;45242;-48
2022/01/20 01:00:32;;;;;;;;;6.50;6.50;;;;;20.59;34.80;102323.41;4974697;28;45594;-58
2022/01/20 01:02:58;;;;;;;;;9.75;9.00;;;;;20.61;34.89;102318.13;4974226;28;46414;-49
2022/01/20 01:05:24;;;;;;;;;11.50;8.25;;;;;20.64;34.84;102318.00;4974254;28;45928;-58
2022/01/20 01:07:52;;;;;;;;;8.75;8.75;;;;;20.65;34.88;102315.34;4974442;28;45300;-56
2022/01/20 01:10:20;;;;;;;;;9.00;9.00;;;;;20.67;34.77;102329.28;4974190;28;45609;-57
2022/01/20 01:12:53;;;;;;;;;8.00;7.00;;;;;20.68;34.62;102330.16;4974244;28;47031;-58
2022/01/20 01:15:36;;;;;;;;;8.25;8.25;;;;;20.69;34.85;102338.00;4974137;28;45392;-48
2022/01/20 01:23:38;;;;;;;;;10.75;7.75;;;;;20.71;34.72;102340.63;4973792;28;45375;-48
2022/01/20 01:26:09;;;;;;;;;10.25;9.00;;;;;20.70;34.67;102350.28;4955739;28;45324;-53
2022/01/20 01:28:35;;;;;;;;;7.50;6.25;;;;;20.71;34.22;102364.31;4974294;28;45210;-48
2022/01/20 01:33:33;;;;;;;;;7.00;7.00;;;;;20.71;34.18;102359.06;4956998;28;45966;-53
2022/01/20 01:36:02;;;;;;;;;10.75;7.50;;;;;20.72;34.15;102366.06;4973898;28;45339;-56
2022/01/20 01:38:36;;;;;;;;;7.75;7.75;;;;;20.70;34.59;102368.72;4974066;28;45299;-57
2022/01/20 01:41:14;;;;;;;;;7.75;6.25;;;;;20.72;34.57;102368.69;4974390;28;45332;-54
2022/01/20 01:43:44;;;;;;;;;8.00;8.00;;;;;20.72;34.16;102363.41;4973348;28;46998;-58
2022/01/20 01:46:12;;;;;;;;;9.00;8.00;;;;;20.70;34.16;102366.09;4973866;28;45407;-56
2022/01/20 01:48:42;;;;;;;;;7.00;5.50;;;;;20.70;34.18;102374.00;4973843;28;45374;-56
2022/01/20 01:51:08;;;;;;;;;5.50;5.00;;;;;20.70;34.36;102381.03;4973950;28;45626;-53
2022/01/20 01:53:33;;;;;;;;;7.75;7.75;;;;;20.70;34.42;102389.78;4973584;28;45368;-53
2022/01/20 01:55:59;;;;;;;;;7.50;7.50;;;;;20.70;34.09;102396.84;4973581;28;45213;-55
2022/01/20 01:58:24;;;;;;;;;6.50;6.50;;;;;20.68;34.00;102410.06;4973598;28;45332;-55
2022/01/20 02:00:50;;;;;;;;;5.50;5.50;;;;;20.68;34.26;102409.19;4973817;28;45516;-55
2022/01/20 02:03:16;;;;;;;;;8.00;6.25;;;;;20.67;34.47;102415.38;4973579;28;46259;-56
2022/01/20 02:09:14;;;;;;;;;5.50;5.50;;;;;20.66;34.26;102425.06;4937201;28;45561;-58
2022/01/20 02:19:55;;;;;;;;;8.00;7.00;;;;;20.62;34.41;102431.34;4973199;28;45365;-51
2022/01/20 02:22:20;;;;;;;;;7.75;7.50;;;;;20.61;34.61;102424.34;4973496;28;45513;-55
2022/01/20 02:24:45;;;;;;;;;7.00;5.75;;;;;20.60;34.06;102417.34;4973430;28;46612;-58
2022/01/20 02:27:11;;;;;;;;;5.00;5.00;;;;;20.58;34.44;102413.88;4973054;28;45450;-55
2022/01/20 02:29:36;;;;;;;;;7.00;6.00;;;;;20.58;34.00;102428.84;4973132;28;45241;-58
2022/01/20 02:32:02;;;;;;;;;7.00;7.00;;;;;20.59;34.69;102434.06;4973223;28;45651;-58
2022/01/20 02:34:30;;;;;;;;;5.00;5.00;;;;;20.58;34.75;102437.59;4972911;28;47134;-56
2022/01/20 02:36:58;;;;;;;;;8.75;5.75;;;;;20.55;34.56;102435.06;4974369;28;45976;-55
2022/01/20 02:47:22;;;;;;;;;6.50;4.25;;;;;20.51;34.21;102429.00;4976302;28;45896;-57
2022/01/20 02:49:47;;;;;;;;;6.25;4.00;;;;;20.50;34.42;102422.03;4976388;28;45264;-57
2022/01/20 02:52:13;;;;;;;;;7.50;7.00;;;;;20.49;34.21;102414.16;4976211;28;45383;-58
2022/01/20 02:54:39;;;;;;;;;7.00;5.25;;;;;20.48;34.45;102409.81;4975820;28;46837;-58
2022/01/20 02:57:05;;;;;;;;;8.75;5.25;;;;;20.46;34.08;102412.50;4975987;28;45359;-57
2022/01/20 02:59:33;;;;;;;;;5.00;5.00;;;;;20.44;34.29;102410.81;4974672;28;45554;-51
2022/01/20 03:01:59;;;;;;;;;5.75;5.75;;;;;20.43;34.37;102402.03;4958625;28;45233;-59
2022/01/20 03:04:26;;;;;;;;;7.25;5.25;;;;;20.41;34.11;102403.84;4975623;28;46420;-59
2022/01/20 03:06:52;;;;;;;;;7.25;6.25;;;;;20.42;34.50;102410.00;4975806;28;45344;-58
2022/01/20 03:09:18;;;;;;;;;6.00;6.00;;;;;20.40;33.99;102415.28;4975983;28;45441;-57
2022/01/20 03:11:43;;;;;;;;;5.75;5.75;;;;;20.39;34.58;102413.59;4976007;28;45380;-58
2022/01/20 03:14:08;;;;;;;;;6.50;5.25;;;;;20.38;34.15;102417.97;4975752;28;45374;-58
2022/01/20 03:16:37;;;;;;;;;6.75;5.50;;;;;20.36;34.57;102425.06;4975763;28;45432;-55
2022/01/20 03:19:02;;;;;;;;;5.25;5.00;;;;;20.37;34.23;102437.31;4975812;28;45352;-58
2022/01/20 03:21:28;;;;;;;;;4.75;4.75;;;;;20.35;34.24;102433.88;4975701;28;45467;-57
2022/01/20 03:23:53;;;;;;;;;5.25;4.00;;;;;20.34;34.17;102433.91;4975349;28;46605;-49
2022/01/20 03:26:18;;;;;;;;;5.00;5.00;;;;;20.31;34.39;102437.50;4975951;28;45268;-54
2022/01/20 03:28:44;;;;;;;;;3.50;2.75;;;;;20.32;34.50;102443.63;4975735;28;45312;-46
2022/01/20 03:31:09;;;;;;;;;5.75;5.75;;;;;20.29;34.31;102452.50;4975738;28;45274;-58
2022/01/20 03:33:35;;;;;;;;;4.75;4.00;;;;;20.29;34.00;102446.34;4975347;28;45342;-51
2022/01/20 03:36:00;;;;;;;;;5.50;5.25;;;;;20.29;34.02;102444.59;4975493;28;45300;-48
2022/01/20 03:38:26;;;;;;;;;7.00;6.00;;;;;20.27;34.40;102443.75;4975522;28;45296;-50
2022/01/20 03:40:51;;;;;;;;;7.00;6.75;;;;;20.25;34.52;102448.19;4976335;28;45815;-48
2022/01/20 03:43:18;;;;;;;;;7.50;5.25;;;;;20.22;34.37;102454.44;4975725;28;46080;-50
2022/01/20 03:45:47;;;;;;;;;6.00;3.75;;;;;20.21;34.23;102447.44;4975438;28;45802;-53
2022/01/20 03:48:13;;;;;;;;;6.50;4.75;;;;;20.20;34.31;102442.22;4957394;28;45352;-57
2022/01/20 03:53:23;;;;;;;;;6.00;5.00;;;;;20.18;34.11;102441.41;4975357;28;45387;-50
2022/01/20 03:55:48;;;;;;;;;6.50;6.50;;;;;20.17;34.24;102444.94;4975540;28;45335;-54
2022/01/20 03:58:14;;;;;;;;;3.75;3.00;;;;;20.17;34.32;102450.19;4975388;28;45423;-55
2022/01/20 04:00:40;;;;;;;;;6.00;4.00;;;;;20.17;34.32;102447.56;4958259;28;45408;-58
2022/01/20 04:03:05;;;;;;;;;5.00;4.00;;;;;20.18;34.49;102451.94;4975069;28;46438;-52
2022/01/20 04:05:30;;;;;;;;;4.00;4.00;;;;;20.20;34.40;102458.03;4975085;28;45377;-57
2022/01/20 04:07:56;;;;;;;;;6.00;5.00;;;;;20.24;34.26;102462.28;4957753;28;45581;-57
2022/01/20 04:10:21;;;;;;;;;4.00;4.00;;;;;20.26;34.14;102465.72;4975422;28;45190;-57
2022/01/20 04:12:46;;;;;;;;;7.50;6.00;;;;;20.30;34.38;102467.38;4974989;28;46465;-54
2022/01/20 04:15:15;;;;;;;;;6.25;4.25;;;;;20.35;34.54;102478.63;4974878;28;45229;-57
2022/01/20 04:17:42;;;;;;;;;5.50;4.50;;;;;20.38;34.46;102470.66;4975034;28;45419;-57
2022/01/20 04:20:08;;;;;;;;;5.75;4.00;;;;;20.44;34.10;102474.88;4975114;28;45573;-57
2022/01/20 04:22:34;;;;;;;;;7.00;4.00;;;;;20.48;33.89;102480.91;4974789;28;46389;-55
2022/01/20 04:25:00;;;;;;;;;5.00;5.00;;;;;20.50;34.52;102480.00;4974956;28;45700;-57
2022/01/20 04:27:25;;;;;;;;;5.25;4.00;;;;;20.54;34.20;102480.75;4974975;28;45293;-58
2022/01/20 04:29:50;;;;;;;;;4.75;3.50;;;;;20.57;33.94;102480.63;4975498;28;45396;-55
2022/01/20 04:32:16;;;;;;;;;4.25;4.00;;;;;20.62;33.89;102478.75;4974724;28;45384;-52
2022/01/20 04:34:41;;;;;;;;;5.00;5.00;;;;;20.65;33.69;102483.94;4974699;28;45325;-53
2022/01/20 04:37:08;;;;;;;;;4.25;4.00;;;;;20.68;34.11;102483.81;4974764;28;45237;-55
2022/01/20 04:39:37;;;;;;;;;4.75;4.00;;;;;20.70;34.10;102486.44;4974946;28;45474;-56
2022/01/20 04:42:03;;;;;;;;;5.00;4.00;;;;;20.72;34.18;102483.75;4974746;28;46337;-57
2022/01/20 04:44:52;;;;;;;;;6.00;5.00;;;;;20.72;33.98;102483.75;4974602;28;45342;-57
2022/01/20 04:47:32;;;;;;;;;4.00;4.00;;;;;20.74;33.70;102495.09;4974458;28;45304;-56
2022/01/20 04:58:10;;;;;;;;;3.50;3.50;;;;;20.76;34.06;102507.34;4974699;28;45450;-57
2022/01/20 05:00:35;;;;;;;;;6.50;4.00;;;;;20.77;33.44;102502.97;4973579;28;45527;-57
2022/01/20 05:03:04;;;;;;;;;5.75;5.00;;;;;20.75;33.58;102495.06;4974344;28;46451;-57
2022/01/20 05:05:30;;;;;;;;;5.00;4.00;;;;;20.76;33.55;102495.97;4974413;28;45373;-55
2022/01/20 05:07:55;;;;;;;;;5.00;4.00;;;;;20.77;34.07;102495.06;4974792;28;45315;-57
2022/01/20 05:10:20;;;;;;;;;2.50;1.50;;;;;20.75;33.34;102484.53;4957019;28;45241;-58
2022/01/20 05:15:18;;;;;;;;;5.00;4.25;;;;;20.76;33.55;102488.91;4974103;28;45805;-56
2022/01/20 05:17:43;;;;;;;;;3.00;3.00;;;;;20.77;33.34;102492.41;4974297;28;45365;-58
2022/01/20 05:20:09;;;;;;;;;4.00;4.00;;;;;20.74;33.29;102484.56;4974443;28;45430;-58
2022/01/20 05:22:35;;;;;;;;;4.00;4.00;;;;;20.74;33.92;102474.91;4973970;28;45432;-57
2022/01/20 05:25:02;;;;;;;;;4.00;2.50;;;;;20.74;33.26;102476.66;4974086;28;45260;-54
2022/01/20 05:27:27;;;;;;;;;5.00;4.25;;;;;20.74;33.50;102489.84;4974407;28;45395;-53
2022/01/20 05:29:53;;;;;;;;;4.00;3.25;;;;;20.73;33.22;102493.38;4974539;28;45339;-56
2022/01/20 05:32:19;;;;;;;;;2.75;2.75;;;;;20.72;33.46;102494.28;4973838;28;46360;-54
2022/01/20 05:34:45;;;;;;;;;4.00;3.00;;;;;20.72;33.71;102491.66;4973781;28;45978;-56
2022/01/20 05:37:10;;;;;;;;;2.25;2.25;;;;;20.69;33.43;102496.09;4973990;28;45347;-57
2022/01/20 05:39:35;;;;;;;;;3.00;3.00;;;;;20.69;33.00;102501.34;4974156;28;45306;-58
2022/01/20 05:42:01;;;;;;;;;5.00;5.00;;;;;20.68;33.80;102502.25;4973757;28;46225;-57
2022/01/20 05:44:26;;;;;;;;;3.25;3.00;;;;;20.68;33.24;102506.69;4974124;28;45418;-53
2022/01/20 05:46:53;;;;;;;;;0.00;0.00;;;;;20.67;33.58;102512.88;4973972;28;45449;-57
2022/01/20 05:49:21;;;;;;;;;3.25;3.25;;;;;20.67;33.57;102513.72;4974112;28;45434;-57
2022/01/20 05:51:52;;;;;;;;;4.00;4.00;;;;;20.65;33.52;102515.56;4973490;28;45515;-58
2022/01/20 05:54:19;;;;;;;;;3.50;3.50;;;;;20.64;33.35;102519.09;4973571;28;45325;-58
2022/01/20 05:56:44;;;;;;;;;3.25;3.25;;;;;20.63;33.45;102517.34;4973748;28;45429;-58
2022/01/20 05:59:11;;;;;;;;;5.50;3.00;;;;;20.63;33.10;102522.63;4973817;28;45379;-56
2022/01/20 06:01:38;;;;;;;;;3.50;2.50;;;;;20.62;33.42;102520.03;4973417;28;46637;-55
2022/01/20 06:04:05;;;;;;;;;4.00;3.50;;;;;20.60;33.70;102527.97;4973400;28;46116;-58
2022/01/20 06:06:32;;;;;;;;;4.00;3.00;;;;;20.60;33.89;102527.13;4973632;28;45453;-58
2022/01/20 06:08:58;;;;;;;;;6.25;3.25;;;;;20.58;33.37;102528.94;4973847;28;45511;-56
2022/01/20 06:11:23;;;;;;;;;5.25;3.50;;;;;20.58;33.49;102531.56;4974041;28;46485;-58
2022/01/20 06:13:49;;;;;;;;;2.50;2.50;;;;;20.54;33.18;102536.06;4976430;28;45367;-57
2022/01/20 06:16:15;;;;;;;;;5.00;3.75;;;;;20.54;33.18;102526.38;4976605;28;45399;-58
2022/01/20 06:18:40;;;;;;;;;2.00;2.00;;;;;20.53;33.33;102534.34;4976633;28;45328;-55
2022/01/20 06:21:06;;;;;;;;;3.25;3.25;;;;;20.52;33.75;102527.34;4974982;28;48499;-57
2022/01/20 06:23:32;;;;;;;;;3.00;3.00;;;;;20.51;33.57;102530.88;4976134;28;45747;-58
2022/01/20 06:26:02;;;;;;;;;3.25;3.25;;;;;20.49;33.28;102535.31;4976655;28;45395;-58
2022/01/20 06:28:28;;;;;;;;;3.75;3.00;;;;;20.45;33.30;102538.97;4976772;28;45329;-58
2022/01/20 06:30:53;;;;;;;;;3.25;2.50;;;;;20.44;33.42;102534.59;4976023;28;45380;-58
2022/01/20 06:33:19;;;;;;;;;2.00;2.00;;;;;20.46;33.49;102535.41;4957911;28;61605;-49
2022/01/20 06:35:45;;;;;;;;;4.00;3.00;;;;;20.44;33.60;102535.44;4976308;28;45385;-53
2022/01/20 06:38:11;;;;;;;;;4.00;4.00;;;;;20.44;33.54;102542.50;4976286;28;45242;-57
2022/01/20 06:40:37;;;;;;;;;2.50;2.00;;;;;20.43;33.12;102543.41;4976074;28;46333;-56
2022/01/20 06:43:02;;;;;;;;;5.25;3.00;;;;;20.41;33.20;102547.84;4975971;28;45432;-53
2022/01/20 06:45:28;;;;;;;;;3.75;2.75;;;;;20.39;33.62;102546.13;4976621;28;45418;-55
2022/01/20 06:47:53;;;;;;;;;2.75;2.75;;;;;20.38;33.56;102554.91;4976326;28;45242;-52
2022/01/20 06:50:19;;;;;;;;;4.00;2.75;;;;;20.37;33.60;102550.56;4975906;28;45574;-55
2022/01/20 06:52:44;;;;;;;;;2.75;2.75;;;;;20.36;33.60;102562.00;4958637;28;45398;-53
2022/01/20 06:55:12;;;;;;;;;1.00;1.00;;;;;20.35;33.40;102559.41;4976170;28;45360;-55
2022/01/20 06:57:39;;;;;;;;;3.00;2.75;;;;;20.32;33.07;102570.91;4976202;28;45437;-54
2022/01/20 07:00:10;;;;;;;;;2.00;2.00;;;;;20.30;33.43;102567.44;4975865;28;46333;-54
2022/01/20 07:02:36;;;;;;;;;2.75;2.00;;;;;20.31;33.22;102584.97;4975866;28;45869;-58
2022/01/20 07:05:02;;;;;;;;;2.75;2.75;;;;;20.28;33.44;102574.50;4975881;28;45414;-58
2022/01/20 07:07:28;;;;;;;;;0.00;0.00;;;;;20.31;33.30;102586.72;4976338;28;45637;-58
2022/01/20 07:09:54;;;;;;;;;2.75;2.00;;;;;20.30;33.16;102593.78;4975645;28;46139;-58
2022/01/20 07:12:19;;;;;;;;;2.00;2.00;;;;;20.33;33.72;102601.59;4958097;28;45589;-57
2022/01/20 07:14:44;;;;;;;;;2.00;2.00;;;;;20.36;33.58;102608.53;4975908;28;45450;-58
2022/01/20 07:17:10;;;;;;;;;3.00;3.00;;;;;20.38;33.65;102615.50;4958355;28;45170;-56
2022/01/20 07:19:35;;;;;;;;;3.00;2.00;;;;;20.43;33.61;102617.16;4975530;28;45372;-58
2022/01/20 07:22:04;;;;;;;;;4.25;2.25;;;;;20.47;33.53;102622.28;4976041;28;45404;-58
2022/01/20 07:24:30;;;;;;;;;2.50;2.50;;;;;20.51;33.29;102633.59;4975164;28;45313;-57
2022/01/20 07:26:57;;;;;;;;;2.50;2.00;;;;;20.55;33.50;102638.75;4975859;28;45645;-58
2022/01/20 07:29:22;;;;;;;;;4.00;2.00;;;;;20.59;33.22;102636.91;4975467;28;45522;-58
2022/01/20 07:31:48;;;;;;;;;1.00;1.00;;;;;20.63;33.47;102640.31;4975296;28;45406;-57
2022/01/20 07:34:13;;;;;;;;;8.00;4.25;;;;;20.66;33.44;102637.59;4975588;28;45841;-55
2022/01/20 07:36:39;;;;;;;;;2.00;2.00;;;;;20.69;33.45;102633.09;4975812;28;45369;-56
2022/01/20 07:39:05;;;;;;;;;2.00;2.00;;;;;20.72;33.44;102637.44;4975310;28;46395;-57
2022/01/20 07:41:31;;;;;;;;;2.25;2.25;;;;;20.75;33.30;102640.00;4975786;28;45352;-57
2022/01/20 07:43:56;;;;;;;;;3.75;1.00;;;;;20.78;33.60;102644.34;4975450;28;45288;-52
2022/01/20 07:46:21;;;;;;;;;2.00;1.75;;;;;20.79;33.26;102643.41;4975594;28;45217;-57
2022/01/20 07:48:47;;;;;;;;;4.00;3.00;;;;;20.80;33.36;102635.47;4957568;28;47395;-55
2022/01/20 07:51:12;;;;;;;;;2.00;2.00;;;;;20.80;33.06;102624.06;4975285;28;45338;-58
2022/01/20 07:53:38;;;;;;;;;3.00;2.00;;;;;20.82;33.57;102638.06;4975465;28;45561;-57
2022/01/20 07:56:05;;;;;;;;;3.25;3.25;;;;;20.83;33.06;102645.06;4975832;28;45832;-48
2022/01/20 07:58:31;;;;;;;;;2.75;2.75;;;;;20.85;33.36;102648.53;4975388;28;45655;-56
2022/01/20 08:00:57;;;;;;;;;2.00;1.25;;;;;20.83;33.24;102635.41;4975131;28;45293;-58
2022/01/20 08:03:22;;;;;;;;;2.00;2.00;;;;;20.84;32.87;102637.09;4975255;28;45368;-58
2022/01/20 08:05:47;;;;;;;;;3.50;3.50;;;;;20.85;33.31;102627.44;4975372;28;45633;-57
2022/01/20 08:08:13;;;;;;;;;2.75;2.75;;;;;20.86;33.17;102639.72;4975061;28;46292;-58
2022/01/20 08:10:38;;;;;;;;;3.25;2.25;;;;;20.86;33.34;102637.09;4974896;28;45728;-58
2022/01/20 08:13:04;;;;;;;;;5.00;2.00;;;;;20.86;32.78;102639.72;4975670;28;45678;-59
2022/01/20 08:15:30;;;;;;;;;4.25;2.00;;;;;20.87;33.24;102646.72;4975719;28;45246;-58
2022/01/20 08:17:55;;;;;;;;;2.50;1.50;;;;;20.86;33.27;102655.53;4974830;28;45421;-58
2022/01/20 08:20:21;;;;;;;;;4.00;3.00;;;;;20.86;33.45;102650.25;4974978;28;45174;-56
2022/01/20 08:22:46;;;;;;;;;2.50;2.00;;;;;20.86;33.01;102650.25;4975022;28;45159;-59
2022/01/20 08:25:15;;;;;;;;;4.50;3.00;;;;;20.86;32.97;102652.91;4975190;28;45429;-58
2022/01/20 08:27:42;;;;;;;;;2.25;2.00;;;;;20.85;33.20;102643.25;4974789;28;46536;-54
2022/01/20 08:30:12;;;;;;;;;3.00;3.00;;;;;20.84;32.92;102644.16;4974830;28;45796;-58
2022/01/20 08:32:38;;;;;;;;;3.00;3.00;;;;;20.84;32.80;102644.16;4974991;28;45269;-54
2022/01/20 08:35:06;;;;;;;;;2.00;1.25;;;;;20.84;32.99;102650.28;4975327;28;45604;-56
2022/01/20 08:37:40;;;;;;;;;4.50;2.75;;;;;20.83;33.41;102651.22;4974812;28;46710;-58
2022/01/20 08:40:14;;;;;;;;;2.50;2.50;;;;;20.83;33.12;102658.25;4974750;28;45431;-49
2022/01/20 08:42:45;;;;;;;;;3.50;3.00;;;;;20.82;33.40;102667.06;4973482;28;45466;-57
2022/01/20 08:45:13;;;;;;;;;2.00;2.00;;;;;20.80;33.17;102667.09;4974974;28;45541;-57
2022/01/20 08:47:39;;;;;;;;;4.00;3.00;;;;;20.79;32.57;102659.22;4974666;28;47291;-54
2022/01/20 08:50:06;;;;;;;;;1.75;1.75;;;;;20.78;33.18;102662.78;4957441;28;45799;-56
2022/01/20 08:52:32;;;;;;;;;4.00;2.25;;;;;20.77;32.71;102666.34;4975054;28;45289;-58
2022/01/20 08:54:58;;;;;;;;;4.25;3.00;;;;;20.76;32.85;102675.13;4974644;28;45497;-58
2022/01/20 08:57:27;;;;;;;;;2.00;2.00;;;;;20.74;33.12;102667.25;4974408;28;46466;-57
2022/01/20 08:59:54;;;;;;;;;1.75;1.75;;;;;20.73;32.97;102664.63;4974402;28;45749;-54
2022/01/20 09:02:20;;;;;;;;;1.75;1.25;;;;;20.73;32.97;102654.09;4974593;28;45344;-55
2022/01/20 09:04:46;;;;;;;;;4.25;2.00;;;;;20.71;32.86;102648.88;4974617;28;45479;-52
2022/01/20 09:07:12;;;;;;;;;1.50;1.50;;;;;20.70;32.77;102661.19;4974183;28;46221;-53
2022/01/20 09:09:42;;;;;;;;;4.00;3.00;;;;;20.71;33.16;102662.06;4974089;28;45415;-56
2022/01/20 09:17:19;;;;;;;;;2.00;2.00;;;;;20.68;32.87;102673.53;4973985;28;45408;-57
2022/01/20 09:19:44;;;;;;;;;1.75;1.00;;;;;20.67;33.00;102676.22;4974143;28;45387;-55
2022/01/20 09:22:11;;;;;;;;;3.25;1.50;;;;;20.65;33.22;102668.34;4974273;28;45261;-56
2022/01/20 09:24:37;;;;;;;;;2.00;2.00;;;;;20.65;33.12;102681.53;4974721;28;45470;-58
2022/01/20 09:27:02;;;;;;;;;2.00;2.00;;;;;20.64;33.38;102692.97;4974260;28;45542;-57
2022/01/20 09:29:28;;;;;;;;;5.25;3.00;;;;;20.64;33.49;102692.09;4973924;28;45341;-57
2022/01/20 09:31:53;;;;;;;;;2.00;2.00;;;;;20.63;33.50;102696.50;4974198;28;45502;-54
2022/01/20 09:34:19;;;;;;;;;4.25;2.00;;;;;20.61;32.90;102711.50;4974237;28;45354;-58
2022/01/20 09:36:45;;;;;;;;;4.25;3.25;;;;;20.60;33.01;102714.16;4972529;28;48246;-58
2022/01/20 09:39:11;;;;;;;;;4.50;2.00;;;;;20.59;33.31;102721.19;4973893;28;45212;-58
2022/01/20 09:41:37;;;;;;;;;5.25;3.00;;;;;20.58;33.01;102722.09;4974396;28;45222;-56
2022/01/20 09:44:05;;;;;;;;;6.25;3.00;;;;;20.58;32.69;102715.97;4974057;28;45569;-58
2022/01/20 09:46:31;;;;;;;;;3.00;2.00;;;;;20.55;33.25;102717.78;4974635;28;45424;-58
2022/01/20 09:48:57;;;;;;;;;2.75;2.75;;;;;20.55;33.37;102714.28;4959181;28;45749;-57
2022/01/20 09:51:22;;;;;;;;;2.00;2.00;;;;;20.53;32.72;102708.19;4976987;28;45473;-58
2022/01/20 09:53:48;;;;;;;;;4.00;2.00;;;;;20.53;33.04;102711.69;4977004;28;45518;-56
2022/01/20 09:56:14;;;;;;;;;4.25;3.00;;;;;20.50;32.72;102701.25;4976747;28;45548;-57
2022/01/20 09:58:39;;;;;;;;;2.00;2.00;;;;;20.51;33.13;102704.72;4959658;28;45961;-48
2022/01/20 10:01:05;;;;;;;;;3.50;3.50;;;;;20.50;33.18;102700.34;4977121;28;45240;-57
2022/01/20 10:03:31;;;;;;;;;2.50;2.50;;;;;20.50;33.00;102705.63;4976801;28;45289;-56
2022/01/20 10:06:00;;;;;;;;;5.00;3.00;;;;;20.48;33.08;102708.31;4976448;28;46487;-57
2022/01/20 10:08:28;;;;;;;;;2.00;2.00;;;;;20.48;32.88;102712.69;4976471;28;45436;-58
2022/01/20 10:10:57;;;;;;;;;2.75;2.25;;;;;20.47;32.82;102716.22;4976575;28;45453;-56
2022/01/20 10:13:30;;;;;;;;;5.00;4.00;;;;;20.45;33.01;102718.06;4976677;28;45311;-55
2022/01/20 10:16:06;;;;;;;;;4.00;3.00;;;;;20.44;33.31;102724.22;4976425;28;45365;-60
2022/01/20 10:18:34;;;;;;;;;7.50;4.50;;;;;20.45;33.07;102733.88;4958843;28;45768;-58
2022/01/20 10:21:04;;;;;;;;;3.00;2.25;;;;;20.45;32.83;102729.44;4976518;28;45455;-55
2022/01/20 10:23:39;;;;;;;;;3.00;3.00;;;;;20.47;33.12;102742.56;4976697;28;45309;-55
2022/01/20 10:26:13;;;;;;;;;3.00;3.00;;;;;20.49;33.25;102746.03;4976255;28;46226;-55
2022/01/20 10:29:03;;;;;;;;;7.25;4.00;;;;;20.53;33.38;102750.34;4976440;28;45395;-54
2022/01/20 10:31:44;;;;;;;;;4.00;3.00;;;;;20.57;33.22;102749.34;4976483;28;45187;-56
2022/01/20 10:34:28;;;;;;;;;4.25;4.25;;;;;20.62;33.19;102752.75;4976988;28;45605;-57
2022/01/20 10:36:55;;;;;;;;;2.25;2.25;;;;;20.66;33.33;102754.41;4976169;28;46594;-57
2022/01/20 10:39:37;;;;;;;;;3.75;3.00;;;;;20.70;32.79;102752.53;4976232;28;45398;-54
2022/01/20 10:42:08;;;;;;;;;2.25;2.00;;;;;20.73;33.04;102762.13;4976488;28;45426;-59
2022/01/20 10:44:42;;;;;;;;;4.75;4.75;;;;;20.79;32.88;102762.00;4976430;28;45533;-56
2022/01/20 10:47:12;;;;;;;;;3.00;3.00;;;;;20.82;33.17;102761.94;4976434;28;46347;-55
2022/01/20 10:49:37;;;;;;;;;4.00;4.00;;;;;20.82;32.94;102759.28;4976347;28;45851;-56
2022/01/20 10:52:05;;;;;;;;;1.00;1.00;;;;;20.89;33.26;102770.53;4976137;28;45376;-55
2022/01/20 10:54:52;;;;;;;;;2.00;2.00;;;;;20.92;32.82;102766.06;4976131;28;45394;-56
2022/01/20 10:57:26;;;;;;;;;6.75;3.75;;;;;20.93;32.74;102765.16;4975512;28;46442;-57
2022/01/20 10:59:57;;;;;;;;;3.25;1.50;;;;;20.95;33.00;102757.19;4975228;28;45649;-53
2022/01/20 11:02:29;;;;;;;;;2.50;2.50;;;;;20.97;32.71;102743.09;4976118;28;45335;-56
2022/01/20 11:04:56;;;;;;;;;3.00;3.00;;;;;20.98;32.95;102742.19;4959362;28;45474;-55
2022/01/20 11:07:23;;;;;;;;;3.00;3.00;;;;;20.98;32.95;102743.94;4975740;28;46436;-52
2022/01/20 11:09:56;;;;;;;;;3.75;3.75;;;;;21.00;33.12;102745.63;4975529;28;45756;-55
2022/01/20 11:12:21;;;;;;;;;3.00;3.00;;;;;21.02;32.52;102753.50;4975751;28;45360;-52
2022/01/20 11:14:49;;;;;;;;;5.25;3.00;;;;;21.03;32.75;102749.06;4976023;28;45300;-55
2022/01/20 11:17:24;;;;;;;;;3.25;3.25;;;;;21.01;33.29;102749.13;4958139;28;46565;-53
2022/01/20 11:19:50;;;;;;;;;3.00;3.00;;;;;21.01;32.71;102757.88;4975639;28;45313;-56
2022/01/20 11:22:17;;;;;;;;;3.00;3.00;;;;;21.01;32.54;102749.97;4975756;28;45288;-54
2022/01/20 11:24:43;;;;;;;;;2.00;2.00;;;;;21.01;32.67;102744.72;4976134;28;45463;-59
2022/01/20 11:27:14;;;;;;;;;4.00;2.00;;;;;21.01;32.63;102749.97;4975823;28;45630;-57
2022/01/20 11:29:45;;;;;;;;;6.00;3.00;;;;;21.04;32.93;102751.69;4975757;28;45273;-56
2022/01/20 11:32:20;;;;;;;;;3.25;3.25;;;;;21.03;33.01;102741.16;4976013;28;45436;-52
2022/01/20 11:35:07;;;;;;;;;3.00;3.00;;;;;21.03;32.65;102735.91;4975890;28;45523;-54
2022/01/20 11:37:39;;;;;;;;;3.00;3.00;;;;;21.03;32.67;102730.63;4975473;28;45708;-55
2022/01/20 11:40:18;;;;;;;;;4.00;4.00;;;;;21.01;32.65;102734.16;4975191;28;45955;-57
2022/01/20 11:43:08;;;;;;;;;5.25;4.00;;;;;21.01;32.68;102738.59;4975489;28;45269;-53
2022/01/20 11:45:40;;;;;;;;;3.00;2.25;;;;;21.01;32.63;102730.69;4975581;28;45237;-58
2022/01/20 11:48:12;;;;;;;;;3.00;3.00;;;;;20.99;32.45;102730.72;4975301;28;45692;-59
2022/01/20 11:50:37;;;;;;;;;2.75;2.75;;;;;20.98;32.98;102731.63;4975272;28;45794;-59
2022/01/20 11:53:13;;;;;;;;;4.50;2.50;;;;;20.98;33.00;102741.28;4975309;28;45432;-60
2022/01/20 11:55:48;;;;;;;;;5.00;3.50;;;;;20.97;32.43;102743.09;4975557;28;45438;-59
2022/01/20 11:58:16;;;;;;;;;3.50;3.50;;;;;20.96;32.94;102738.72;4975522;28;46349;-60
2022/01/20 12:00:41;;;;;;;;;4.25;3.00;;;;;20.95;32.74;102730.81;4975490;28;45247;-59
2022/01/20 12:03:14;;;;;;;;;3.25;3.00;;;;;20.94;32.78;102729.97;4975371;28;45340;-60
2022/01/20 12:05:40;;;;;;;;;4.75;4.00;;;;;20.94;32.64;102742.31;4975886;28;45351;-60
2022/01/20 12:08:18;;;;;;;;;4.50;4.00;;;;;20.93;32.36;102741.44;4975023;28;47314;-60
2022/01/20 12:11:07;;;;;;;;;3.00;3.00;;;;;20.91;32.77;102737.97;4957542;28;45748;-59
2022/01/20 12:13:48;;;;;;;;;3.00;3.00;;;;;20.91;32.56;102737.97;4975120;28;45391;-59
2022/01/20 12:16:18;;;;;;;;;4.25;3.00;;;;;20.88;32.58;102740.69;4975676;28;45363;-58
2022/01/20 12:18:51;;;;;;;;;3.00;3.00;;;;;20.88;32.65;102753.00;4957697;28;48249;-59
2022/01/20 12:21:17;;;;;;;;;4.75;3.50;;;;;20.86;32.18;102755.69;4974943;28;45327;-59
2022/01/20 12:23:44;;;;;;;;;3.00;3.00;;;;;20.86;32.41;102753.03;4975441;28;45494;-59
2022/01/20 12:26:10;;;;;;;;;2.00;2.00;;;;;20.85;32.48;102749.53;4975185;28;45543;-59
2022/01/20 12:28:35;;;;;;;;;3.00;3.00;;;;;20.83;32.86;102753.13;4974816;28;45633;-58
2022/01/20 12:31:03;;;;;;;;;1.00;1.00;;;;;20.84;32.47;102747.78;4974890;28;45178;-57
2022/01/20 12:33:31;;;;;;;;;3.25;3.25;;;;;20.82;32.49;102748.75;4974972;28;45332;-58
2022/01/20 12:36:02;;;;;;;;;3.00;3.00;;;;;20.80;32.69;102754.06;4975048;28;45466;-59
2022/01/20 12:38:37;;;;;;;;;3.00;3.00;;;;;20.79;32.84;102746.19;4974432;28;47384;-59
2022/01/20 12:41:05;;;;;;;;;2.25;2.25;;;;;20.79;32.73;102749.69;4974846;28;45715;-55